Карточка аэропорта USTR

Внимание!
Информация на этой странице в стадии наполнения.
Если вы не увидели какой-то информации, или заметили неточность - пожалуйста сообщите нам!
Спасибо!
Команда RU-STAFF
Название аэропортаРощино
Название аэропорта (англ.)Roshschino
Превышение378 ft. (115.2 m.)
Координаты57°10.098', 65°19.002'
Высота перехода3000ft
Эшелон переходаQNH⩾1013hPa:FL040; QNH⩾977hPa:FL050; QNH⩽977hPa:FL060
Коды ответчика5101-5137
Зона ОрВДТюмень РПИ (USTV)
Данные METARUSTR 260200Z 01005MPS 6000 -SHRA BKN007 OVC029CB 08/08 Q1005 R30/290055 R21/290055 TEMPO 01014MPS
Проноз погоды (TAF)USTR 260108Z 2601/2624 36006G14MPS 9999 SCT007 BKN020CB TEMPO 2601/2603 02016MPS 1500 SHRA SCT004 BKN016CB FM260300 01005G14MPS 6000 -SHRA BKN010 BKN020CB TEMPO 2603/2609 35016MPS 2100 -SHRA SCT005 BKN016CB FM260900 33008G14MPS 9999 SCT020 TEMPO 2609/2615 33017MPS BECMG 2617/2618 34005G10MPS
NOTAMshow/hide NOTAM
AWOS   TABLE

Информация о ВПП

ВПП Длина ВПП (м.) Покрытие Курс ВПП Частота ILS
033003Асфальтобетон34108.3
122704Асфальтобетон121 
213003Асфальтобетон214110.7
302704Асфальтобетон301 

Диспетчерские позиции

Позывной Наименование органа УВД Частота
USTR_GNDТюмень-Руление119.000
USTR_TWRТюмень-Старт118.200
USTR_R_APPТюмень-Круг126.100



Спутниковое изображение